Flight Track Log - Related Links

Times and Time Zones

All times are in EDT time to prevent confusion due to time zone crossing. See the UAL1053 flight status page for this flight to view local times or setup timezone preferences in your user account.

Time Position Orientation Groundspeed Altitude Reporting Facility
EDT Latitude Longitude Course Direction KTS MPH feet Rate Location/Type
Thu 07:36:04 PM 40.7154 -74.1492 34° Northeast 158 182 2,500  Level FlightAware ADS-B
Thu 07:36:08 PM 40.7178 -74.1471 34° Northeast 175 201 2,500 -800 Level FlightAware ADS-B
Thu 07:36:19 PM 40.7239 -74.1418 33° Northeast 194 223 2,300 -1,125 Descending FlightAware ADS-B
Thu 07:36:24 PM 40.7271 -74.1390 34° Northeast 213 245 2,200 -600 Descending FlightAware ADS-B
Thu 07:36:29 PM 40.7295 -74.1370 32° Northeast 220 253 2,200  Level FlightAware ADS-B
Thu 07:36:36 PM 40.7335 -74.1336 33° Northeast 231 266 2,200 1,304 Level FlightAware ADS-B
Thu 07:36:52 PM 40.7424 -74.1260 33° Northeast 236 272 2,700 2,129 Climbing FlightAware ADS-B
Thu 07:37:07 PM 40.7511 -74.1185 33° Northeast 240 276 3,300 1,816 Climbing FlightAware ADS-B
Thu 07:38:08 PM 40.7840 -74.0900 33° Northeast 263 303 5,000 1,629 Climbing FlightAware ADS-B
Thu 07:38:17 PM 40.7900 -74.0851 32° Northeast 259 298 5,200 2,250 Climbing FlightAware ADS-B
Thu 07:38:32 PM 40.7988 -74.0775 33° Northeast 259 298 5,900 2,842 Climbing FlightAware ADS-B
Thu 07:38:36 PM 40.8007 -74.0759 33° Northeast 259 298 6,100 3,900 Climbing FlightAware ADS-B
Thu 07:38:52 PM 40.8100 -74.0679 33° Northeast 258 297 7,200 4,105 Climbing FlightAware ADS-B
Thu 07:38:55 PM 40.8114 -74.0668 31° Northeast 266 306 7,400 4,125 Climbing FlightAware ADS-B
Thu 07:39:08 PM 40.8190 -74.0602 33° Northeast 270 311 8,300 4,000 Climbing FlightAware ADS-B
Thu 07:39:19 PM 40.8230 -74.2283 272° West 269 310 9,000 3,488 Climbing FlightAware ADS-B
Thu 07:39:51 PM 40.8478 -74.4385 279° West 278 320 10,800 2,381 Climbing FlightAware ADS-B
Thu 07:40:22 PM 40.8765 -74.4794 313° West 327 376 11,500 2,459 Climbing FlightAware ADS-B
Thu 07:40:52 PM 40.9078 -74.5264 311° West 333 383 13,300 3,581 Climbing FlightAware ADS-B
Thu 07:41:24 PM 40.9411 -74.5747 312° West 335 386 15,200 3,467 Climbing FlightAware ADS-B
Thu 07:41:37 PM 40.9543 -74.5939 312° West 330 380 15,900 3,120 Climbing FlightAware ADS-B
Thu 07:41:49 PM 40.9616 -74.6128 297° West 327 376 16,500 2,700 Climbing FlightAware ADS-B
Thu 07:41:57 PM 40.9645 -74.6311 282° West 327 376 16,800 1,500 Climbing FlightAware ADS-B
Thu 07:42:05 PM 40.9652 -74.6440 274° West 329 379 16,900 462 Climbing FlightAware ADS-B
Thu 07:42:10 PM 40.9650 -74.6542 269° West 330 380 16,900  Level FlightAware ADS-B
Thu 07:42:45 PM 40.9584 -74.7267 263° West 329 379 16,900  Level FlightAware ADS-B
Thu 07:43:17 PM 40.9524 -74.7877 263° West 328 377 16,900  Level FlightAware ADS-B
Thu 07:43:48 PM 40.9467 -74.8490 263° West 328 377 16,900  Level FlightAware ADS-B
Thu 07:44:18 PM 40.9407 -74.9120 263° West 329 379 16,900 100 Level FlightAware ADS-B
Thu 07:44:48 PM 40.9349 -74.9717 263° West 334 384 17,000 1,385 Climbing FlightAware ADS-B
Thu 07:45:23 PM 40.9282 -75.0425 263° West 339 390 18,400 2,328 Climbing FlightAware ADS-B
Thu 07:45:55 PM 40.9223 -75.1064 263° West 349 402 19,600 2,400 Climbing FlightAware ADS-B
Thu 07:46:13 PM 40.9187 -75.1443 263° West 351 404 20,400 2,625 Climbing FlightAware ADS-B
Thu 07:46:27 PM 40.9137 -75.1770 259° West 351 404 21,000 2,533 Climbing FlightAware ADS-B
Thu 07:46:58 PM 40.9007 -75.2413 255° West 354 407 22,300 2,323 Climbing FlightAware ADS-B
Thu 07:47:29 PM 40.8881 -75.3032 255° West 361 415 23,400 2,400 Climbing FlightAware ADS-B
Thu 07:48:03 PM 40.8726 -75.3788 255° West 360 414 24,900 2,156 Climbing FlightAware ADS-B
Thu 07:48:33 PM 40.8585 -75.4420 254° West 368 423 25,700 1,548 Climbing FlightAware ADS-B
Thu 07:49:05 PM 40.8426 -75.5085 252° West 381 438 26,500 952 Climbing FlightAware ADS-B
Thu 07:49:36 PM 40.8257 -75.5787 252° West 404 465 26,700 581 Climbing FlightAware ADS-B
Thu 07:50:07 PM 40.8080 -75.6531 253° West 417 480 27,100 1,065 Climbing FlightAware ADS-B
Thu 07:50:38 PM 40.7889 -75.7331 253° West 424 488 27,800 1,452 Climbing FlightAware ADS-B
Thu 07:51:09 PM 40.7706 -75.8090 252° West 427 491 28,600 1,645 Climbing FlightAware ADS-B
Thu 07:51:40 PM 40.7521 -75.8860 252° West 425 489 29,500 1,333 Climbing FlightAware ADS-B
Thu 07:52:12 PM 40.7334 -75.9637 252° West 417 480 30,000 476 Climbing FlightAware ADS-B
Thu 07:52:43 PM 40.7153 -76.0387 252° West 414 476 30,000  Level FlightAware ADS-B
Thu 07:53:13 PM 40.6980 -76.1102 252° West 413 475 30,000  Level FlightAware ADS-B
Thu 07:53:43 PM 40.6805 -76.1821 252° West 412 474 30,000  Level FlightAware ADS-B
Thu 07:53:55 PM 40.6748 -76.2112 256° West 413 475 30,000  Level FlightAware ADS-B
Thu 07:54:05 PM 40.6725 -76.2359 263° West 414 476 30,000  Level FlightAware ADS-B
Thu 07:54:11 PM 40.6722 -76.2516 269° West 414 476 30,000  Level FlightAware ADS-B
Thu 07:54:27 PM 40.6763 -76.2908 278° West 417 480 30,000  Level FlightAware ADS-B
Thu 07:55:04 PM 40.6916 -76.3838 282° West 418 481 30,000 783 Level FlightAware ADS-B
Thu 07:55:36 PM 40.7052 -76.4622 283° West 416 479 30,900 1,727 Climbing FlightAware ADS-B
Thu 07:56:10 PM 40.7189 -76.5426 283° West 412 474 31,900 1,015 Climbing FlightAware ADS-B
Thu 07:56:41 PM 40.7317 -76.6187 283° West 420 483 32,000 95 Climbing FlightAware ADS-B
Thu 07:57:13 PM 40.7451 -76.7020 282° West 418 481 32,000  Level FlightAware ADS-B
Thu 07:57:49 PM 40.7597 -76.7877 283° West 418 481 32,000  Level FlightAware ADS-B
Thu 07:58:30 PM 40.7766 -76.8896 282° West 418 481 32,000  Level FlightAware ADS-B
Thu 07:59:04 PM 40.7906 -76.9741 282° West 418 481 32,000  Level FlightAware ADS-B
Thu 07:59:54 PM 40.8108 -77.1031 282° West 418 481 32,000  Level FlightAware ADS-B
Thu 08:00:47 PM 40.8320 -77.2346 282° West 417 480 32,000  Level FlightAware ADS-B
Thu 08:01:18 PM 40.8443 -77.3070 283° West 414 476 32,000  Level FlightAware ADS-B
Thu 08:02:02 PM 40.8616 -77.4161 282° West 414 476 32,000  Level FlightAware ADS-B
Thu 08:02:32 PM 40.8736 -77.4933 282° West 414 476 32,000  Level FlightAware ADS-B
Thu 08:03:14 PM 40.8899 -77.5963 282° West 412 474 32,000  Level FlightAware ADS-B
Thu 08:04:21 PM 40.9142 -77.7583 282° West 410 472 32,000  Level Cleveland Center
Thu 08:05:22 PM 40.9364 -77.9031 282° West 410 472 32,000  Level Cleveland Center
Thu 08:06:21 PM 40.9583 -78.0508 281° West 410 472 32,000  Level Cleveland Center
Thu 08:07:21 PM 40.9803 -78.1983 281° West 410 472 32,000  Level Cleveland Center
Thu 08:08:21 PM 41.0039 -78.3325 283° West 410 472 32,000  Level Cleveland Center
Thu 08:09:21 PM 41.0278 -78.4831 282° West 410 472 32,000  Level Cleveland Center
Thu 08:10:21 PM 41.0492 -78.6339 281° West 410 472 32,000  Level Cleveland Center
Thu 08:11:21 PM 41.0703 -78.7792 281° West 410 472 32,000  Level Cleveland Center
Thu 08:12:21 PM 41.0933 -78.9300 282° West 410 472 32,000  Level Cleveland Center
Thu 08:13:21 PM 41.1164 -79.0811 281° West 410 472 32,000  Level Cleveland Center
Thu 08:14:21 PM 41.1350 -79.2461 279° West 410 472 32,000  Level Cleveland Center
Thu 08:15:21 PM 41.1575 -79.3833 282° West 416 479 32,000 -350 Level Cleveland Center
Thu 08:16:21 PM 41.1797 -79.5319 281° West 416 479 31,300 -850 Descending Cleveland Center
Thu 08:17:21 PM 41.2000 -79.7028 279° West 416 479 30,300 -1,000 Descending Cleveland Center
Thu 08:18:21 PM 41.2197 -79.8489 280° West 416 479 29,300 -1,406 Descending Cleveland Center
Thu 08:23:58 PM 41.3250 -80.6200 280° West 369 425 21,000 -1,767 Descending FlightAware ADS-B
Thu 08:24:48 PM 41.3590 -80.7430 290° West 368 423 17,900 -3,067 Descending FlightAware ADS-B
Thu 08:25:28 PM 41.3900 -80.8230 297° West 363 418 16,400 -2,175 Descending FlightAware ADS-B
Thu 08:26:08 PM 41.4170 -80.8930 297° West 358 412 15,000 -2,188 Descending FlightAware ADS-B
Thu 08:26:53 PM 41.4510 -80.9860 296° West 348 400 13,300 -2,329 Descending FlightAware ADS-B
Thu 08:27:33 PM 41.4820 -81.0640 298° West 343 395 11,700 -2,118 Descending FlightAware ADS-B
Thu 08:28:18 PM 41.5110 -81.1470 295° West 337 388 10,300 -1,059 Descending FlightAware ADS-B
Thu 08:28:58 PM 41.5060 -81.2320 266° West 332 382 10,200 -75 Descending FlightAware ADS-B
Thu 08:29:38 PM 41.4950 -81.3110 259° West 329 379 10,200  Level FlightAware ADS-B
Thu 08:30:23 PM 41.4810 -81.3990 258° West 326 375 10,200  Level FlightAware ADS-B
Thu 08:31:03 PM 41.4700 -81.4720 259° West 279 321 10,200 -686 Level FlightAware ADS-B
Thu 08:31:33 PM 41.4620 -81.5220 258° West 275 316 9,400 -1,527 Descending FlightAware ADS-B
Thu 08:31:58 PM 41.4550 -81.5620 257° West 273 314 8,800 -1,636 Descending FlightAware ADS-B
Thu 08:32:28 PM 41.4480 -81.6140 260° West 272 313 7,900 -1,636 Descending FlightAware ADS-B
Thu 08:32:53 PM 41.4410 -81.6530 257° West 266 306 7,300 -1,050 Descending FlightAware ADS-B
Thu 08:33:08 PM 41.4310 -81.6770 241° Southwest 247 284 7,200 -133 Descending FlightAware ADS-B
Thu 08:33:38 PM 41.4120 -81.7120 234° Southwest 221 254 7,200  Level FlightAware ADS-B
Thu 08:34:08 PM 41.3970 -81.7420 236° Southwest 216 249 7,200  Level FlightAware ADS-B
Thu 08:34:33 PM 41.3820 -81.7700 234° Southwest 191 220 7,200  Level FlightAware ADS-B
Thu 08:35:03 PM 41.3690 -81.7980 238° Southwest 183 211 7,200  Level FlightAware ADS-B
Thu 08:35:28 PM 41.3560 -81.8220 234° Southwest 178 205 7,200 -764 Level FlightAware ADS-B
Thu 08:35:58 PM 41.3390 -81.8460 227° Southwest 178 205 6,500 -1,091 Descending FlightAware ADS-B
Thu 08:36:23 PM 41.3260 -81.8640 226° Southwest 177 204 6,200 -327 Descending FlightAware ADS-B
Thu 08:36:53 PM 41.3080 -81.8880 225° Southwest 177 204 6,200  Level FlightAware ADS-B
Thu 08:37:23 PM 41.2910 -81.9110 225° Southwest 177 204 6,200 -109 Level FlightAware ADS-B
Thu 08:37:48 PM 41.2770 -81.9300 226° Southwest 175 201 6,100 -982 Descending FlightAware ADS-B
Thu 08:38:18 PM 41.2590 -81.9560 227° Southwest 179 206 5,300 -1,418 Descending FlightAware ADS-B
Thu 08:38:43 PM 41.2460 -81.9730 225° Southwest 183 211 4,800 -1,309 Descending FlightAware ADS-B
Thu 08:39:13 PM 41.2280 -82.0000 228° Southwest 198 228 4,100 -1,543 Descending FlightAware ADS-B
Thu 08:39:18 PM 41.2270 -82.0050 255° West 203 234 3,900 -1,200 Descending FlightAware ADS-B
Thu 08:39:43 PM 41.2370 -82.0340 295° West 206 237 3,500 -1,000 Descending FlightAware ADS-B
Thu 08:39:48 PM 41.2410 -82.0400 312° West 205 236 3,400 -720 Descending FlightAware ADS-B
Thu 08:40:08 PM 41.2560 -82.0520 329° Northwest 199 229 3,200 -343 Descending FlightAware ADS-B
Thu 08:40:23 PM 41.2690 -82.0500 North 194 223 3,200  Level FlightAware ADS-B
Thu 08:40:53 PM 41.2940 -82.0310 30° Northeast 194 223 3,200  Level FlightAware ADS-B
Thu 08:41:18 PM 41.3110 -82.0130 38° Northeast 189 217 3,200  Level FlightAware ADS-B
Thu 08:41:48 PM 41.3290 -81.9850 49° Northeast 190 219 3,200 -436 Level FlightAware ADS-B
Thu 08:42:13 PM 41.3420 -81.9650 49° Northeast 180 207 2,800 -873 Descending FlightAware ADS-B
Thu 08:42:43 PM 41.3570 -81.9410 50° Northeast 156 180 2,400 -873 Descending FlightAware ADS-B
Thu 08:43:08 PM 41.3690 -81.9240 47° Northeast 144 166 2,000 -873 Descending FlightAware ADS-B
Thu 08:43:38 PM 41.3820 -81.9030 50° Northeast 142 163 1,600 -800 Descending FlightAware ADS-B

Login

Don't have an account? Register now (free) for customized features, flight alerts, and more!